Time;durP1;ratioP1;P1;durP2;ratioP2;P2;SDS_P1;SDS_P2;PMS_P1;PMS_P2;Temp;Humidity;BMP_temperature;BMP_pressure;BME280_temperature;BME280_humidity;BME280_pressure;Samples;Min_cycle;Max_cycle;Signal;HPM_P1;HPM_P2
2022/05/26 00:00:10;;;;;;;;;;;14.20;99.90;;;;;;5007811;28;19942;-77
2022/05/26 00:02:36;;;;;;;;;;;14.20;99.90;;;;;;5004665;28;20459;-77
2022/05/26 00:05:02;;;;;;;;;;;14.20;99.90;;;;;;5027901;28;19932;-78
2022/05/26 00:07:27;;;;;;;;;;;14.20;99.90;;;;;;5010892;28;19928;-79
2022/05/26 00:09:53;;;;;;;;;;;14.20;99.90;;;;;;4997678;28;20157;-76
2022/05/26 00:12:19;;;;;;;;;;;14.20;99.90;;;;;;4991939;28;20448;-78
2022/05/26 00:14:45;;;;;;;;;;;14.20;99.90;;;;;;5015724;28;20059;-77
2022/05/26 00:17:11;;;;;;;;;;;14.30;99.90;;;;;;5012083;28;19939;-78
2022/05/26 00:19:36;;;;;;;;;;;14.30;99.90;;;;;;5009421;28;19928;-78
2022/05/26 00:22:02;;;;;;;;;;;14.30;99.90;;;;;;5013761;28;19939;-78
2022/05/26 00:24:27;;;;;;;;;;;14.30;99.90;;;;;;5009610;28;19936;-77
2022/05/26 00:26:53;;;;;;;;;;;14.30;99.90;;;;;;4994711;28;19932;-79
2022/05/26 00:29:19;;;;;;;;;;;14.40;99.90;;;;;;4975970;28;19933;-79
2022/05/26 00:31:44;;;;;;;;;;;14.40;99.90;;;;;;5014223;28;19932;-78
2022/05/26 00:34:10;;;;;;;;;;;14.40;99.90;;;;;;4991935;28;19928;-77
2022/05/26 00:36:39;;;;;;;;;;;14.40;99.90;;;;;;5012619;28;20009;-78
2022/05/26 00:39:09;;;;;;;;;;;14.40;99.90;;;;;;4991352;28;19928;-80
2022/05/26 00:41:37;;;;;;;;;;;14.40;99.90;;;;;;5014154;28;20925;-78
2022/05/26 00:44:03;;;;;;;;;;;14.50;99.90;;;;;;4997481;28;19932;-79
2022/05/26 00:46:38;;;;;;;;;;;14.50;99.90;;;;;;5012458;28;19925;-80
2022/05/26 00:49:03;;;;;;;;;;;14.50;99.90;;;;;;5015213;28;19982;-79
2022/05/26 00:51:34;;;;;;;;;;;14.50;99.90;;;;;;4995794;28;19933;-80
2022/05/26 00:54:03;;;;;;;;;;;14.50;99.90;;;;;;5008887;28;19936;-78
2022/05/26 00:56:32;;;;;;;;;;;14.50;99.90;;;;;;4998961;28;20389;-76
2022/05/26 00:59:01;;;;;;;;;;;14.40;99.90;;;;;;5019142;28;19929;-77
2022/05/26 01:01:27;;;;;;;;;;;14.40;99.90;;;;;;5015720;28;20429;-77
2022/05/26 01:03:55;;;;;;;;;;;14.30;99.90;;;;;;5020522;28;20476;-77
2022/05/26 01:06:30;;;;;;;;;;;14.40;99.90;;;;;;5004059;28;20043;-78
2022/05/26 01:08:58;;;;;;;;;;;14.40;99.90;;;;;;5018950;28;20909;-77
2022/05/26 01:11:24;;;;;;;;;;;14.40;99.90;;;;;;5024032;28;19935;-78
2022/05/26 01:13:52;;;;;;;;;;;14.40;99.90;;;;;;5023026;28;19998;-77
2022/05/26 01:16:23;;;;;;;;;;;14.40;99.90;;;;;;5036231;28;20605;-78
2022/05/26 01:18:55;;;;;;;;;;;14.40;99.90;;;;;;5033435;28;20448;-77
2022/05/26 01:21:26;;;;;;;;;;;14.40;99.90;;;;;;5015497;28;19929;-80
2022/05/26 01:24:10;;;;;;;;;;;14.40;99.90;;;;;;5016077;28;19928;-78
2022/05/26 01:26:49;;;;;;;;;;;14.40;99.90;;;;;;4996597;28;19928;-77
2022/05/26 01:29:33;;;;;;;;;;;14.40;99.90;;;;;;4998960;28;19928;-77
2022/05/26 01:31:59;;;;;;;;;;;14.50;99.90;;;;;;5014551;28;20282;-77
2022/05/26 01:34:39;;;;;;;;;;;14.40;99.90;;;;;;5015466;28;19940;-78
2022/05/26 01:37:04;;;;;;;;;;;14.40;99.90;;;;;;5013297;28;20493;-77
2022/05/26 01:39:34;;;;;;;;;;;14.40;99.90;;;;;;5015004;28;19928;-77
2022/05/26 01:42:08;;;;;;;;;;;14.40;99.90;;;;;;5024828;28;19933;-76
2022/05/26 01:44:52;;;;;;;;;;;14.30;99.90;;;;;;5005409;28;19928;-78
2022/05/26 01:47:18;;;;;;;;;;;14.40;99.90;;;;;;5002893;28;19933;-79
2022/05/26 01:49:46;;;;;;;;;;;14.30;99.90;;;;;;5007813;28;19929;-77
2022/05/26 01:52:16;;;;;;;;;;;14.40;99.90;;;;;;5006349;28;19932;-79
2022/05/26 01:54:45;;;;;;;;;;;14.40;99.90;;;;;;5003763;28;19936;-79
2022/05/26 01:57:14;;;;;;;;;;;14.40;99.90;;;;;;5028768;28;19935;-77
2022/05/26 01:59:43;;;;;;;;;;;14.40;99.90;;;;;;5024313;28;20446;-79
2022/05/26 02:02:14;;;;;;;;;;;14.30;99.90;;;;;;5018024;28;19933;-77
2022/05/26 02:04:42;;;;;;;;;;;14.30;99.90;;;;;;5022300;28;19934;-78
2022/05/26 02:07:12;;;;;;;;;;;14.30;99.90;;;;;;5008680;28;19932;-79
2022/05/26 02:09:41;;;;;;;;;;;14.20;99.90;;;;;;5013171;28;19932;-79
2022/05/26 02:12:26;;;;;;;;;;;14.30;99.90;;;;;;5018932;28;19964;-78
2022/05/26 02:15:01;;;;;;;;;;;14.30;99.90;;;;;;4998060;28;19929;-79
2022/05/26 02:17:37;;;;;;;;;;;14.30;99.90;;;;;;5014975;28;19987;-79
2022/05/26 02:20:07;;;;;;;;;;;14.30;99.90;;;;;;5004719;28;19928;-79
2022/05/26 02:22:36;;;;;;;;;;;14.40;99.90;;;;;;4996712;28;20284;-79
2022/05/26 02:25:05;;;;;;;;;;;14.30;99.90;;;;;;5017991;28;19933;-79
2022/05/26 02:27:31;;;;;;;;;;;14.30;99.90;;;;;;5011425;28;19933;-78
2022/05/26 02:30:00;;;;;;;;;;;14.30;99.90;;;;;;4994063;28;19940;-80
2022/05/26 02:32:46;;;;;;;;;;;14.40;99.90;;;;;;5010905;28;19932;-80
2022/05/26 02:35:14;;;;;;;;;;;14.30;99.90;;;;;;5013820;28;19929;-78
2022/05/26 02:37:41;;;;;;;;;;;14.40;99.90;;;;;;5011953;28;19940;-79
2022/05/26 02:40:08;;;;;;;;;;;14.30;99.90;;;;;;4992656;28;20397;-79
2022/05/26 02:42:36;;;;;;;;;;;14.30;99.90;;;;;;5017982;28;20005;-79
2022/05/26 02:45:02;;;;;;;;;;;14.30;99.90;;;;;;4996429;28;19928;-80
2022/05/26 02:47:27;;;;;;;;;;;14.30;99.90;;;;;;5012078;28;19933;-78
2022/05/26 02:50:11;;;;;;;;;;;14.30;99.90;;;;;;5016219;28;19933;-79
2022/05/26 02:53:01;;;;;;;;;;;14.40;99.90;;;;;;4994456;28;19932;-79
2022/05/26 02:55:45;;;;;;;;;;;14.40;99.90;;;;;;4993483;28;20023;-77
2022/05/26 02:58:30;;;;;;;;;;;14.50;99.90;;;;;;4996324;28;19932;-78
2022/05/26 03:01:02;;;;;;;;;;;14.50;99.90;;;;;;4995595;28;19936;-79
2022/05/26 03:03:31;;;;;;;;;;;14.50;99.90;;;;;;5013000;28;19928;-79
2022/05/26 03:06:02;;;;;;;;;;;14.50;99.90;;;;;;4993426;28;20422;-79
2022/05/26 03:08:29;;;;;;;;;;;14.50;99.90;;;;;;5012250;28;19934;-79
2022/05/26 03:11:01;;;;;;;;;;;14.50;99.90;;;;;;5015005;28;20397;-80
2022/05/26 03:13:27;;;;;;;;;;;14.50;99.90;;;;;;4992375;28;19933;-79
2022/05/26 03:15:54;;;;;;;;;;;14.50;99.90;;;;;;5016663;28;20353;-80
2022/05/26 03:18:19;;;;;;;;;;;14.50;99.90;;;;;;5013911;28;20128;-79
2022/05/26 03:20:45;;;;;;;;;;;14.50;99.90;;;;;;4995834;28;20653;-79
2022/05/26 03:23:10;;;;;;;;;;;14.50;99.90;;;;;;5012842;28;19928;-79
2022/05/26 03:25:36;;;;;;;;;;;14.50;99.90;;;;;;4996960;28;20022;-78
2022/05/26 03:28:02;;;;;;;;;;;14.50;99.90;;;;;;5008884;28;19933;-79
2022/05/26 03:30:27;;;;;;;;;;;14.50;99.90;;;;;;5016492;28;20231;-79
2022/05/26 03:32:53;;;;;;;;;;;14.50;99.90;;;;;;5019250;28;20035;-79
2022/05/26 03:40:55;;;;;;;;;;;14.50;99.90;;;;;;4995646;28;20012;-80
2022/05/26 03:43:23;;;;;;;;;;;14.50;99.90;;;;;;5007577;28;19933;-79
2022/05/26 03:45:48;;;;;;;;;;;14.50;99.90;;;;;;5009207;28;19940;-79
2022/05/26 03:48:14;;;;;;;;;;;14.50;99.90;;;;;;5026777;28;20300;-80
2022/05/26 03:50:40;;;;;;;;;;;14.50;99.90;;;;;;4990468;28;20293;-79
2022/05/26 03:53:05;;;;;;;;;;;14.50;99.90;;;;;;5006923;28;19929;-78
2022/05/26 03:55:31;;;;;;;;;;;14.50;99.90;;;;;;5008384;28;19936;-79
2022/05/26 03:57:59;;;;;;;;;;;14.50;99.90;;;;;;5027160;28;19984;-78
2022/05/26 04:00:24;;;;;;;;;;;14.50;99.90;;;;;;5024900;28;20023;-79
2022/05/26 04:02:50;;;;;;;;;;;14.50;99.90;;;;;;5029916;28;19931;-80
2022/05/26 04:05:16;;;;;;;;;;;14.50;99.90;;;;;;5027497;28;19972;-80
2022/05/26 04:07:42;;;;;;;;;;;14.50;99.90;;;;;;5030714;28;19932;-79
2022/05/26 04:10:09;;;;;;;;;;;14.50;99.90;;;;;;5003298;28;20323;-80
2022/05/26 04:12:35;;;;;;;;;;;14.60;99.90;;;;;;5026626;28;19936;-80
2022/05/26 04:15:02;;;;;;;;;;;14.60;99.90;;;;;;5033144;28;19939;-80
2022/05/26 04:17:28;;;;;;;;;;;14.50;99.90;;;;;;5022144;28;20848;-79
2022/05/26 04:19:54;;;;;;;;;;;14.60;99.90;;;;;;5036812;28;19933;-80
2022/05/26 04:22:21;;;;;;;;;;;14.60;99.90;;;;;;5033598;28;19971;-80
2022/05/26 04:24:48;;;;;;;;;;;14.60;99.90;;;;;;5005947;28;20039;-79
2022/05/26 04:27:15;;;;;;;;;;;14.60;99.90;;;;;;5035519;28;20070;-79
2022/05/26 04:29:40;;;;;;;;;;;14.70;99.90;;;;;;5036831;28;19928;-80
2022/05/26 04:32:06;;;;;;;;;;;14.70;99.90;;;;;;5013350;28;19935;-80
2022/05/26 04:34:32;;;;;;;;;;;14.70;99.90;;;;;;5033423;28;19991;-79
2022/05/26 04:36:57;;;;;;;;;;;14.70;99.90;;;;;;5032602;28;20506;-80
2022/05/26 04:39:23;;;;;;;;;;;14.70;99.90;;;;;;5034622;28;19933;-80
2022/05/26 04:41:49;;;;;;;;;;;14.70;99.90;;;;;;5009816;28;19940;-81
2022/05/26 04:44:16;;;;;;;;;;;14.80;99.90;;;;;;5013715;28;20039;-80
2022/05/26 04:46:41;;;;;;;;;;;14.70;99.90;;;;;;5031948;28;20835;-80
2022/05/26 04:49:07;;;;;;;;;;;14.80;99.90;;;;;;5016052;28;19928;-79
2022/05/26 04:51:34;;;;;;;;;;;14.80;99.90;;;;;;5011786;28;20019;-80
2022/05/26 04:54:00;;;;;;;;;;;14.90;99.90;;;;;;5034425;28;19928;-81
2022/05/26 04:56:26;;;;;;;;;;;15.00;99.90;;;;;;5034035;28;19974;-80
2022/05/26 04:58:51;;;;;;;;;;;15.10;99.90;;;;;;5034913;28;20310;-80
2022/05/26 05:01:19;;;;;;;;;;;15.20;99.90;;;;;;5013792;28;19929;-81
2022/05/26 05:03:45;;;;;;;;;;;15.30;99.90;;;;;;5032368;28;19950;-80
2022/05/26 05:06:11;;;;;;;;;;;16.40;99.90;;;;;;5037703;28;20670;-79
2022/05/26 05:08:36;;;;;;;;;;;16.40;99.90;;;;;;5021367;28;19928;-80
2022/05/26 05:11:02;;;;;;;;;;;16.30;99.90;;;;;;5036814;28;19928;-80
2022/05/26 05:13:28;;;;;;;;;;;17.70;99.90;;;;;;5014548;28;19940;-80
2022/05/26 05:16:14;;;;;;;;;;;18.90;99.90;;;;;;5037445;28;19940;-80
2022/05/26 05:18:40;;;;;;;;;;;20.10;99.90;;;;;;5022338;28;19928;-81
2022/05/26 05:21:10;;;;;;;;;;;21.30;99.90;;;;;;5038223;28;20660;-80
2022/05/26 05:23:39;;;;;;;;;;;21.20;99.90;;;;;;5040047;28;19939;-81
2022/05/26 05:26:08;;;;;;;;;;;22.40;99.90;;;;;;5041334;28;20003;-81
2022/05/26 05:28:35;;;;;;;;;;;22.50;99.90;;;;;;5037608;28;20509;-81
2022/05/26 05:31:00;;;;;;;;;;;21.80;99.90;;;;;;5041685;28;19928;-80
2022/05/26 05:33:30;;;;;;;;;;;20.00;99.90;;;;;;5035443;28;19928;-80
2022/05/26 05:36:07;;;;;;;;;;;18.80;99.90;;;;;;5040284;28;20022;-80
2022/05/26 05:38:34;;;;;;;;;;;18.00;99.90;;;;;;5027171;28;19929;-80
2022/05/26 05:41:01;;;;;;;;;;;17.70;99.90;;;;;;5021517;28;20408;-79
2022/05/26 05:43:28;;;;;;;;;;;17.40;99.90;;;;;;5039676;28;19940;-80
2022/05/26 05:45:54;;;;;;;;;;;17.20;99.90;;;;;;5034634;28;20043;-80
2022/05/26 05:48:21;;;;;;;;;;;17.00;99.90;;;;;;5029414;28;19940;-81
2022/05/26 05:50:47;;;;;;;;;;;16.90;99.90;;;;;;5025834;28;20429;-81
2022/05/26 05:53:15;;;;;;;;;;;16.80;99.90;;;;;;5028450;28;19929;-79
2022/05/26 05:55:41;;;;;;;;;;;16.90;99.90;;;;;;5040457;28;20023;-80
2022/05/26 05:58:08;;;;;;;;;;;16.90;99.90;;;;;;5016686;28;19928;-81
2022/05/26 06:00:34;;;;;;;;;;;16.90;99.90;;;;;;5037331;28;19936;-81
2022/05/26 06:03:00;;;;;;;;;;;16.80;99.90;;;;;;5041691;28;19989;-80
2022/05/26 06:05:25;;;;;;;;;;;16.80;99.90;;;;;;5018813;28;20448;-80
2022/05/26 06:07:51;;;;;;;;;;;16.80;99.90;;;;;;5017439;28;19929;-80
2022/05/26 06:10:17;;;;;;;;;;;16.70;99.90;;;;;;5035698;28;19929;-80
2022/05/26 06:12:42;;;;;;;;;;;16.60;99.90;;;;;;5037836;28;20031;-79
2022/05/26 06:15:08;;;;;;;;;;;16.50;99.90;;;;;;5039704;28;20027;-79
2022/05/26 06:17:34;;;;;;;;;;;16.40;99.90;;;;;;5034847;28;20386;-78
2022/05/26 06:20:00;;;;;;;;;;;16.40;99.90;;;;;;5025189;28;20283;-81
2022/05/26 06:22:25;;;;;;;;;;;16.40;99.90;;;;;;5041492;28;19939;-81
2022/05/26 06:24:51;;;;;;;;;;;16.50;99.90;;;;;;5003807;28;19948;-80
2022/05/26 06:30:05;;;;;;;;;;;16.90;99.90;;;;;;5028317;28;20106;-79
2022/05/26 06:38:08;;;;;;;;;;;17.80;99.90;;;;;;5035846;28;19932;-81
2022/05/26 06:40:35;;;;;;;;;;;18.10;99.90;;;;;;5015930;28;19936;-84
2022/05/26 06:43:00;;;;;;;;;;;18.20;99.90;;;;;;5038737;28;20021;-82
2022/05/26 06:45:26;;;;;;;;;;;18.30;99.90;;;;;;5042422;28;20015;-81
2022/05/26 06:47:52;;;;;;;;;;;18.70;99.90;;;;;;5016921;28;19929;-84
2022/05/26 06:50:17;;;;;;;;;;;18.90;99.90;;;;;;5015916;28;19937;-80
2022/05/26 06:52:43;;;;;;;;;;;18.60;99.90;;;;;;5041167;28;19933;-80
2022/05/26 06:55:09;;;;;;;;;;;18.10;99.90;;;;;;5038575;28;19940;-81
2022/05/26 06:57:34;;;;;;;;;;;17.80;99.90;;;;;;4999722;28;19933;-78
2022/05/26 07:00:00;;;;;;;;;;;17.60;99.90;;;;;;5012161;28;19940;-80
2022/05/26 07:02:26;;;;;;;;;;;17.40;99.90;;;;;;5026240;28;19929;-78
2022/05/26 07:04:52;;;;;;;;;;;17.60;99.90;;;;;;5009317;28;20063;-81
2022/05/26 07:07:17;;;;;;;;;;;17.70;99.90;;;;;;5015337;28;19943;-80
2022/05/26 07:09:43;;;;;;;;;;;17.90;99.90;;;;;;5027635;28;19944;-79
2022/05/26 07:12:09;;;;;;;;;;;18.40;99.90;;;;;;5011285;28;19936;-80
2022/05/26 07:14:35;;;;;;;;;;;18.60;99.90;;;;;;5030852;28;20047;-78
2022/05/26 07:17:01;;;;;;;;;;;18.60;99.90;;;;;;5010164;28;19936;-79
2022/05/26 07:19:27;;;;;;;;;;;18.70;99.90;;;;;;5034785;28;19935;-79
2022/05/26 07:21:52;;;;;;;;;;;18.80;99.90;;;;;;5041317;28;19929;-79
2022/05/26 07:24:19;;;;;;;;;;;18.50;99.90;;;;;;5034469;28;20417;-78
2022/05/26 07:26:45;;;;;;;;;;;18.40;99.90;;;;;;5036333;28;19929;-79
2022/05/26 07:29:11;;;;;;;;;;;18.40;99.90;;;;;;5038509;28;19936;-83
2022/05/26 07:31:37;;;;;;;;;;;18.50;99.90;;;;;;5021677;28;20424;-82
2022/05/26 07:34:03;;;;;;;;;;;18.70;99.90;;;;;;5042051;28;20331;-81
2022/05/26 07:42:00;;;;;;;;;;;19.10;99.90;;;;;;5008679;28;19929;-79
2022/05/26 07:44:25;;;;;;;;;;;19.40;99.90;;;;;;5028244;28;19936;-81
2022/05/26 07:46:51;;;;;;;;;;;19.20;99.90;;;;;;5023855;28;19933;-81
2022/05/26 07:49:17;;;;;;;;;;;19.20;99.90;;;;;;5000092;28;19939;-80
2022/05/26 07:51:43;;;;;;;;;;;18.90;99.90;;;;;;4969210;28;19951;-81
2022/05/26 07:54:09;;;;;;;;;;;18.80;99.90;;;;;;4989211;28;19932;-80
2022/05/26 07:56:39;;;;;;;;;;;19.00;99.90;;;;;;5007129;28;19928;-83
2022/05/26 07:59:06;;;;;;;;;;;18.70;99.90;;;;;;5015001;28;19929;-81
2022/05/26 08:01:32;;;;;;;;;;;18.40;99.90;;;;;;5009853;28;20511;-83
2022/05/26 08:03:58;;;;;;;;;;;18.40;99.90;;;;;;5028005;28;20570;-84
2022/05/26 08:06:23;;;;;;;;;;;18.90;99.90;;;;;;5001704;28;20052;-82
2022/05/26 08:08:49;;;;;;;;;;;18.80;99.90;;;;;;5025324;28;19982;-83
2022/05/26 08:11:15;;;;;;;;;;;18.60;99.90;;;;;;5020523;28;20073;-83
2022/05/26 08:13:40;;;;;;;;;;;18.70;99.90;;;;;;5035058;28;20023;-84
2022/05/26 08:16:06;;;;;;;;;;;18.80;99.90;;;;;;5034342;28;20335;-83
2022/05/26 08:18:32;;;;;;;;;;;18.60;99.90;;;;;;5012171;28;20431;-82
2022/05/26 08:21:16;;;;;;;;;;;18.70;99.90;;;;;;5018221;28;19933;-81
2022/05/26 08:23:41;;;;;;;;;;;19.00;99.90;;;;;;5037291;28;20838;-78
2022/05/26 08:26:07;;;;;;;;;;;19.10;99.90;;;;;;4999966;28;19964;-79
2022/05/26 08:28:33;;;;;;;;;;;19.00;99.90;;;;;;5013043;28;19928;-79
2022/05/26 08:30:59;;;;;;;;;;;18.90;99.90;;;;;;5039466;28;19932;-81
2022/05/26 08:33:28;;;;;;;;;;;18.80;99.90;;;;;;5039713;28;20701;-78
2022/05/26 08:36:01;;;;;;;;;;;18.50;99.90;;;;;;5020956;28;19924;-79
2022/05/26 08:38:27;;;;;;;;;;;18.70;99.90;;;;;;5032829;28;19994;-80
2022/05/26 08:40:52;;;;;;;;;;;19.00;99.90;;;;;;5014015;28;20449;-79
2022/05/26 08:43:20;;;;;;;;;;;19.20;99.90;;;;;;5036146;28;19940;-79
2022/05/26 08:45:48;;;;;;;;;;;19.50;99.90;;;;;;5036651;28;19979;-82
2022/05/26 08:48:15;;;;;;;;;;;19.80;99.90;;;;;;5037805;28;20381;-79
2022/05/26 08:50:41;;;;;;;;;;;19.80;99.90;;;;;;5004584;28;19972;-81
2022/05/26 08:53:09;;;;;;;;;;;20.00;99.90;;;;;;5011648;28;19976;-79
2022/05/26 08:55:34;;;;;;;;;;;20.10;99.90;;;;;;5014715;28;19929;-80
2022/05/26 08:58:06;;;;;;;;;;;20.10;99.90;;;;;;5007662;28;19935;-81
2022/05/26 09:00:33;;;;;;;;;;;20.30;99.90;;;;;;5034551;28;19935;-80
2022/05/26 09:03:00;;;;;;;;;;;19.90;99.90;;;;;;5030507;28;19932;-79
2022/05/26 09:05:29;;;;;;;;;;;19.60;99.90;;;;;;5027843;28;20010;-80
2022/05/26 09:13:34;;;;;;;;;;;20.10;99.90;;;;;;5003700;28;19929;-81
2022/05/26 09:16:01;;;;;;;;;;;20.20;99.90;;;;;;5025655;28;19979;-79
2022/05/26 09:18:27;;;;;;;;;;;20.20;99.90;;;;;;5025264;28;19937;-82
2022/05/26 09:20:53;;;;;;;;;;;20.30;99.90;;;;;;4993224;28;20264;-78
2022/05/26 09:23:29;;;;;;;;;;;20.30;99.90;;;;;;5026678;28;19933;-79
2022/05/26 09:26:02;;;;;;;;;;;20.70;99.90;;;;;;5026395;28;19936;-77
2022/05/26 09:28:28;;;;;;;;;;;20.60;99.90;;;;;;4992534;28;20037;-80
2022/05/26 09:30:54;;;;;;;;;;;20.50;99.90;;;;;;5026274;28;19970;-81
2022/05/26 09:33:27;;;;;;;;;;;20.50;99.90;;;;;;5004353;28;20587;-80
2022/05/26 09:35:53;;;;;;;;;;;20.70;99.90;;;;;;5023927;28;19939;-79
2022/05/26 09:38:19;;;;;;;;;;;21.30;99.90;;;;;;5024260;28;19972;-79
2022/05/26 09:40:46;;;;;;;;;;;20.70;99.90;;;;;;5005557;28;19931;-78
2022/05/26 09:43:21;;;;;;;;;;;21.00;99.90;;;;;;5025437;28;19929;-78
2022/05/26 09:45:50;;;;;;;;;;;21.00;99.90;;;;;;5023758;28;20289;-76
2022/05/26 09:48:24;;;;;;;;;;;21.20;99.90;;;;;;5002309;28;20885;-79
2022/05/26 09:51:02;;;;;;;;;;;20.80;99.90;;;;;;5024544;28;19929;-78
2022/05/26 09:53:38;;;;;;;;;;;20.30;99.90;;;;;;5027066;28;19932;-78
2022/05/26 09:56:05;;;;;;;;;;;20.50;99.90;;;;;;5003555;28;19929;-79
2022/05/26 09:58:37;;;;;;;;;;;20.70;99.90;;;;;;5019196;28;19932;-79
2022/05/26 10:01:31;;;;;;;;;;;21.00;99.90;;;;;;5022286;28;19936;-79
2022/05/26 10:04:06;;;;;;;;;;;21.20;99.90;;;;;;5026847;28;19925;-77
2022/05/26 10:06:31;;;;;;;;;;;21.50;99.90;;;;;;5024566;28;19935;-78
2022/05/26 10:08:57;;;;;;;;;;;21.80;99.90;;;;;;5022700;28;19928;-80
2022/05/26 10:11:26;;;;;;;;;;;21.30;99.90;;;;;;5006231;28;20411;-79
2022/05/26 10:14:04;;;;;;;;;;;21.40;99.90;;;;;;5028767;28;20378;-81
2022/05/26 10:16:41;;;;;;;;;;;20.70;99.90;;;;;;5026149;28;20010;-80
2022/05/26 10:19:19;;;;;;;;;;;20.90;99.90;;;;;;5003070;28;19929;-80
2022/05/26 10:22:05;;;;;;;;;;;21.00;99.90;;;;;;5026124;28;19979;-79
2022/05/26 10:24:49;;;;;;;;;;;20.90;99.90;;;;;;5026384;28;19939;-81
2022/05/26 10:27:33;;;;;;;;;;;20.60;99.90;;;;;;5022410;28;19935;-84
2022/05/26 10:30:02;;;;;;;;;;;20.10;99.90;;;;;;5023622;28;20023;-81
2022/05/26 10:32:46;;;;;;;;;;;19.80;99.90;;;;;;4982271;28;20056;-81
2022/05/26 10:35:16;;;;;;;;;;;19.70;99.90;;;;;;5023161;28;20062;-77
2022/05/26 10:37:48;;;;;;;;;;;19.30;99.90;;;;;;5010396;28;19975;-81
2022/05/26 10:40:16;;;;;;;;;;;19.00;99.90;;;;;;5008176;28;20428;-80
2022/05/26 10:42:45;;;;;;;;;;;18.70;99.90;;;;;;5008755;28;20289;-80
2022/05/26 10:45:13;;;;;;;;;;;18.60;99.90;;;;;;4990690;28;19924;-80
2022/05/26 10:47:53;;;;;;;;;;;18.40;99.90;;;;;;5013520;28;19941;-78
2022/05/26 10:50:19;;;;;;;;;;;18.20;99.90;;;;;;5005715;28;19940;-77
2022/05/26 10:52:48;;;;;;;;;;;18.20;99.90;;;;;;4991527;28;19929;-80
2022/05/26 10:55:15;;;;;;;;;;;19.20;99.90;;;;;;5012716;28;19997;-77
2022/05/26 10:57:48;;;;;;;;;;;20.10;99.90;;;;;;5008765;28;20055;-80
2022/05/26 11:00:16;;;;;;;;;;;20.70;99.90;;;;;;5009856;28;19932;-78
2022/05/26 11:02:54;;;;;;;;;;;21.60;99.90;;;;;;5014235;28;20849;-80
2022/05/26 11:05:32;;;;;;;;;;;21.30;99.90;;;;;;5001016;28;19936;-82
2022/05/26 11:08:13;;;;;;;;;;;20.70;99.90;;;;;;4978413;28;19929;-79
2022/05/26 11:10:46;;;;;;;;;;;20.10;99.90;;;;;;5000188;28;19933;-79
2022/05/26 11:13:17;;;;;;;;;;;19.50;99.90;;;;;;5001679;28;19939;-78
2022/05/26 11:18:45;;;;;;;;;;;20.90;99.90;;;;;;4997311;28;19933;-79
2022/05/26 11:21:13;;;;;;;;;;;21.70;99.90;;;;;;4996554;28;19929;-79
2022/05/26 11:23:41;;;;;;;;;;;22.10;99.90;;;;;;4995566;28;20935;-80
2022/05/26 11:26:25;;;;;;;;;;;21.30;99.90;;;;;;4998809;28;19932;-80
2022/05/26 11:28:57;;;;;;;;;;;20.60;99.90;;;;;;4964888;28;19982;-79
2022/05/26 11:37:00;;;;;;;;;;;20.00;99.90;;;;;;5017610;28;19928;-80
2022/05/26 11:39:33;;;;;;;;;;;20.30;99.90;;;;;;5039516;28;19962;-79
2022/05/26 11:42:01;;;;;;;;;;;19.90;99.90;;;;;;5013767;28;20533;-80
2022/05/26 11:44:34;;;;;;;;;;;19.50;99.90;;;;;;5037952;28;20744;-78
2022/05/26 11:47:35;;;;;;;;;;;19.40;99.90;;;;;;5030319;28;19933;-78
2022/05/26 11:50:04;;;;;;;;;;;19.30;99.90;;;;;;4946781;28;19930;-80
2022/05/26 11:52:36;;;;;;;;;;;19.90;99.90;;;;;;4979664;28;19929;-79
2022/05/26 11:55:07;;;;;;;;;;;20.10;99.90;;;;;;5028523;28;19929;-82
2022/05/26 11:57:34;;;;;;;;;;;20.10;99.90;;;;;;5012166;28;19935;-81
2022/05/26 12:00:12;;;;;;;;;;;20.00;99.90;;;;;;5034146;28;19982;-79
2022/05/26 12:02:38;;;;;;;;;;;20.00;99.90;;;;;;5010756;28;19963;-80
2022/05/26 12:05:22;;;;;;;;;;;19.90;99.90;;;;;;5033866;28;20043;-80
2022/05/26 12:07:48;;;;;;;;;;;20.30;99.90;;;;;;5034089;28;19924;-79
2022/05/26 12:10:21;;;;;;;;;;;20.60;99.90;;;;;;5033026;28;19932;-80
2022/05/26 12:12:47;;;;;;;;;;;20.30;99.90;;;;;;4995272;28;20027;-79
2022/05/26 12:15:33;;;;;;;;;;;19.80;99.90;;;;;;5030848;28;19939;-79
2022/05/26 12:17:59;;;;;;;;;;;20.10;99.90;;;;;;5021710;28;19932;-78
2022/05/26 12:20:24;;;;;;;;;;;20.80;99.90;;;;;;5019705;28;19936;-79
2022/05/26 12:22:50;;;;;;;;;;;20.20;99.90;;;;;;4998544;28;20035;-80
2022/05/26 12:25:35;;;;;;;;;;;19.70;99.90;;;;;;5014568;28;20039;-80
2022/05/26 12:28:03;;;;;;;;;;;19.40;99.90;;;;;;5020043;28;19940;-79
2022/05/26 12:30:28;;;;;;;;;;;19.40;99.90;;;;;;4983675;28;19929;-79
2022/05/26 12:32:54;;;;;;;;;;;20.10;99.90;;;;;;5021063;28;19935;-78
2022/05/26 12:35:23;;;;;;;;;;;20.60;99.90;;;;;;5021066;28;19935;-78
2022/05/26 12:37:55;;;;;;;;;;;20.10;99.90;;;;;;5016076;28;19939;-80
2022/05/26 12:40:41;;;;;;;;;;;20.00;99.90;;;;;;4998255;28;19928;-79
2022/05/26 12:43:37;;;;;;;;;;;20.10;99.90;;;;;;5007094;28;20385;-78
2022/05/26 12:46:10;;;;;;;;;;;20.60;99.90;;;;;;5017663;28;19933;-80
2022/05/26 12:48:35;;;;;;;;;;;21.30;99.90;;;;;;5019315;28;19936;-80
2022/05/26 12:51:02;;;;;;;;;;;21.40;99.90;;;;;;5004453;28;20578;-77
2022/05/26 12:53:30;;;;;;;;;;;21.50;99.90;;;;;;5023740;28;20016;-77
2022/05/26 12:56:09;;;;;;;;;;;21.90;99.90;;;;;;5024499;28;20125;-75
2022/05/26 12:58:37;;;;;;;;;;;22.10;99.90;;;;;;4977225;28;20288;-78
2022/05/26 13:01:04;;;;;;;;;;;21.70;99.90;;;;;;5007169;28;19979;-81
2022/05/26 13:03:31;;;;;;;;;;;22.20;99.90;;;;;;5014816;28;19928;-79
2022/05/26 13:06:01;;;;;;;;;;;22.30;99.90;;;;;;5010948;28;19944;-78
2022/05/26 13:08:29;;;;;;;;;;;22.00;99.90;;;;;;5012219;28;20718;-78
2022/05/26 13:10:56;;;;;;;;;;;22.00;99.90;;;;;;4996238;28;19933;-78
2022/05/26 13:13:33;;;;;;;;;;;21.70;99.90;;;;;;4996896;28;19929;-78
2022/05/26 13:16:17;;;;;;;;;;;21.60;99.90;;;;;;5011229;28;19933;-79
2022/05/26 13:18:43;;;;;;;;;;;21.80;99.90;;;;;;5022735;28;19928;-80
2022/05/26 13:21:16;;;;;;;;;;;21.80;99.90;;;;;;5000230;28;20398;-79
2022/05/26 13:23:41;;;;;;;;;;;22.10;99.90;;;;;;5010302;28;19928;-76
2022/05/26 13:26:07;;;;;;;;;;;22.10;99.90;;;;;;5021596;28;20273;-79
2022/05/26 13:28:34;;;;;;;;;;;22.20;99.90;;;;;;5018309;28;19929;-78
2022/05/26 13:33:54;;;;;;;;;;;21.80;99.90;;;;;;4976142;28;20430;-78
2022/05/26 13:36:29;;;;;;;;;;;22.00;99.90;;;;;;5017548;28;19929;-78
2022/05/26 13:38:54;;;;;;;;;;;22.00;99.90;;;;;;5022576;28;19929;-78
2022/05/26 13:41:22;;;;;;;;;;;22.00;99.90;;;;;;5000403;28;19944;-78
2022/05/26 13:43:48;;;;;;;;;;;21.60;99.90;;;;;;4984157;28;19929;-79
2022/05/26 13:46:15;;;;;;;;;;;21.40;99.90;;;;;;4999103;28;19944;-80
2022/05/26 13:48:44;;;;;;;;;;;21.20;99.90;;;;;;5019837;28;20302;-78
2022/05/26 13:51:20;;;;;;;;;;;21.30;99.90;;;;;;5019745;28;19939;-77
2022/05/26 13:53:48;;;;;;;;;;;21.00;99.90;;;;;;5017804;28;19929;-78
2022/05/26 13:56:17;;;;;;;;;;;20.90;99.90;;;;;;5024580;28;19928;-79
2022/05/26 13:58:45;;;;;;;;;;;21.00;99.90;;;;;;5016103;28;19976;-78
2022/05/26 14:01:12;;;;;;;;;;;21.00;99.90;;;;;;5017224;28;19928;-81
2022/05/26 14:03:38;;;;;;;;;;;21.10;99.90;;;;;;5016879;28;19936;-79
2022/05/26 14:06:06;;;;;;;;;;;21.20;99.90;;;;;;5018872;28;19970;-78
2022/05/26 14:08:32;;;;;;;;;;;21.20;99.90;;;;;;5001193;28;19986;-81
2022/05/26 14:10:58;;;;;;;;;;;21.10;99.90;;;;;;5005906;28;19928;-79
2022/05/26 14:13:27;;;;;;;;;;;21.20;99.90;;;;;;5022620;28;21417;-78
2022/05/26 14:15:54;;;;;;;;;;;21.10;99.90;;;;;;5001306;28;20298;-82
2022/05/26 14:18:23;;;;;;;;;;;20.90;99.90;;;;;;5023599;28;19983;-80
2022/05/26 14:21:00;;;;;;;;;;;20.60;99.90;;;;;;5018120;28;19933;-77
2022/05/26 14:23:26;;;;;;;;;;;20.70;99.90;;;;;;5026879;28;19935;-79
2022/05/26 14:26:15;;;;;;;;;;;20.60;99.90;;;;;;5027029;28;20525;-82
2022/05/26 14:28:41;;;;;;;;;;;20.50;99.90;;;;;;5001283;28;19996;-78
2022/05/26 14:31:20;;;;;;;;;;;20.50;99.90;;;;;;5009392;28;19936;-81
2022/05/26 14:34:07;;;;;;;;;;;20.60;99.90;;;;;;5025663;28;20026;-79
2022/05/26 14:36:32;;;;;;;;;;;20.60;99.90;;;;;;5006151;28;20369;-78
2022/05/26 14:38:59;;;;;;;;;;;20.60;99.90;;;;;;5004332;28;19935;-80
2022/05/26 14:41:25;;;;;;;;;;;20.40;99.90;;;;;;5001655;28;19928;-80
2022/05/26 14:43:54;;;;;;;;;;;20.30;99.90;;;;;;5022307;28;19936;-79
2022/05/26 14:46:20;;;;;;;;;;;20.10;99.90;;;;;;5021549;28;19929;-79
2022/05/26 14:48:46;;;;;;;;;;;19.90;99.90;;;;;;5001258;28;20371;-81
2022/05/26 14:51:11;;;;;;;;;;;19.90;99.90;;;;;;5023186;28;19983;-78
2022/05/26 14:56:22;;;;;;;;;;;19.90;99.90;;;;;;5019481;28;19940;-83
2022/05/26 14:58:47;;;;;;;;;;;19.90;99.90;;;;;;5023112;28;19929;-81
2022/05/26 15:01:13;;;;;;;;;;;19.90;99.90;;;;;;5023703;28;19936;-82
2022/05/26 15:03:39;;;;;;;;;;;19.80;99.90;;;;;;5033647;28;19933;-82
2022/05/26 15:06:04;;;;;;;;;;;19.80;99.90;;;;;;5020438;28;19931;-81